<?xml version="1.0" encoding="UTF-8" standalone="no" ?>
<gpx xmlns="http://www.topografix.com/GPX/1/1" xmlns:xsi="http://www.w3.org/2001/XMLSchema-instance" xsi:schemaLocation="http://www.topografix.com/GPX/1/1 http://www.topografix.com/GPX/1/1/gpx.xsd" version="1.1" creator="VisuGPX - https://www.visugpx.com">
  <metadata>
    <name>Etape 2 Férel - Les Moûtiers</name>
    <desc><![CDATA[Randonnée vélo Rennes - Hendaye, empruntant la Vélodyssée à partir de Saint-Brevin-Les-Pins. ]]></desc>
  </metadata>
  <trk>
    <name><![CDATA[Sequence 23]]></name>
    <trkseg>
      <trkpt lat="47.16426" lon="-2.16855">
        <ele>18</ele>
        <time>2016-07-22T12:39:30Z</time>
      </trkpt>
      <trkpt lat="47.16426" lon="-2.16855">
        <ele>17</ele>
        <time>2016-07-22T12:39:33Z</time>
      </trkpt>
      <trkpt lat="47.16426" lon="-2.16855">
        <ele>17</ele>
        <time>2016-07-22T12:39:38Z</time>
      </trkpt>
      <trkpt lat="47.16423" lon="-2.16857">
        <ele>16</ele>
        <time>2016-07-22T12:39:43Z</time>
      </trkpt>
      <trkpt lat="47.16412" lon="-2.16871">
        <ele>16</ele>
        <time>2016-07-22T12:39:48Z</time>
      </trkpt>
      <trkpt lat="47.16396" lon="-2.16886">
        <ele>16</ele>
        <time>2016-07-22T12:39:53Z</time>
      </trkpt>
      <trkpt lat="47.1638" lon="-2.16905">
        <ele>18</ele>
        <time>2016-07-22T12:39:58Z</time>
      </trkpt>
      <trkpt lat="47.16361" lon="-2.16927">
        <ele>18</ele>
        <time>2016-07-22T12:40:03Z</time>
      </trkpt>
      <trkpt lat="47.16342" lon="-2.16947">
        <ele>17</ele>
        <time>2016-07-22T12:40:08Z</time>
      </trkpt>
      <trkpt lat="47.16322" lon="-2.16969">
        <ele>17</ele>
        <time>2016-07-22T12:40:13Z</time>
      </trkpt>
      <trkpt lat="47.16303" lon="-2.1699">
        <ele>17</ele>
        <time>2016-07-22T12:40:18Z</time>
      </trkpt>
      <trkpt lat="47.16297" lon="-2.16998">
        <ele>17</ele>
        <time>2016-07-22T12:40:23Z</time>
      </trkpt>
      <trkpt lat="47.163" lon="-2.16994">
        <ele>17</ele>
        <time>2016-07-22T12:40:28Z</time>
      </trkpt>
      <trkpt lat="47.163" lon="-2.16993">
        <ele>17</ele>
        <time>2016-07-22T12:40:33Z</time>
      </trkpt>
      <trkpt lat="47.163" lon="-2.16994">
        <ele>15</ele>
        <time>2016-07-22T12:40:38Z</time>
      </trkpt>
      <trkpt lat="47.16296" lon="-2.17001">
        <ele>14</ele>
        <time>2016-07-22T12:40:43Z</time>
      </trkpt>
      <trkpt lat="47.16281" lon="-2.17015">
        <ele>14</ele>
        <time>2016-07-22T12:40:48Z</time>
      </trkpt>
      <trkpt lat="47.16264" lon="-2.17033">
        <ele>12</ele>
        <time>2016-07-22T12:40:53Z</time>
      </trkpt>
      <trkpt lat="47.16241" lon="-2.17055">
        <ele>11</ele>
        <time>2016-07-22T12:40:59Z</time>
      </trkpt>
      <trkpt lat="47.16224" lon="-2.17072">
        <ele>11</ele>
        <time>2016-07-22T12:41:03Z</time>
      </trkpt>
      <trkpt lat="47.16203" lon="-2.17096">
        <ele>12</ele>
        <time>2016-07-22T12:41:08Z</time>
      </trkpt>
      <trkpt lat="47.16178" lon="-2.17121">
        <ele>11</ele>
        <time>2016-07-22T12:41:14Z</time>
      </trkpt>
      <trkpt lat="47.16161" lon="-2.17135">
        <ele>10</ele>
        <time>2016-07-22T12:41:18Z</time>
      </trkpt>
      <trkpt lat="47.16142" lon="-2.17152">
        <ele>12</ele>
        <time>2016-07-22T12:41:23Z</time>
      </trkpt>
      <trkpt lat="47.16121" lon="-2.17182">
        <ele>10</ele>
        <time>2016-07-22T12:41:29Z</time>
      </trkpt>
      <trkpt lat="47.16106" lon="-2.17199">
        <ele>11</ele>
        <time>2016-07-22T12:41:33Z</time>
      </trkpt>
      <trkpt lat="47.16086" lon="-2.1722">
        <ele>10</ele>
        <time>2016-07-22T12:41:38Z</time>
      </trkpt>
      <trkpt lat="47.16066" lon="-2.17241">
        <ele>10</ele>
        <time>2016-07-22T12:41:43Z</time>
      </trkpt>
      <trkpt lat="47.16047" lon="-2.17263">
        <ele>9</ele>
        <time>2016-07-22T12:41:48Z</time>
      </trkpt>
      <trkpt lat="47.16025" lon="-2.17283">
        <ele>8</ele>
        <time>2016-07-22T12:41:53Z</time>
      </trkpt>
      <trkpt lat="47.16007" lon="-2.17302">
        <ele>9</ele>
        <time>2016-07-22T12:41:58Z</time>
      </trkpt>
      <trkpt lat="47.15987" lon="-2.17323">
        <ele>11</ele>
        <time>2016-07-22T12:42:03Z</time>
      </trkpt>
      <trkpt lat="47.15966" lon="-2.1734">
        <ele>13</ele>
        <time>2016-07-22T12:42:08Z</time>
      </trkpt>
      <trkpt lat="47.15945" lon="-2.1736">
        <ele>13</ele>
        <time>2016-07-22T12:42:13Z</time>
      </trkpt>
      <trkpt lat="47.15923" lon="-2.1738">
        <ele>12</ele>
        <time>2016-07-22T12:42:18Z</time>
      </trkpt>
      <trkpt lat="47.15901" lon="-2.17401">
        <ele>12</ele>
        <time>2016-07-22T12:42:23Z</time>
      </trkpt>
      <trkpt lat="47.15879" lon="-2.17421">
        <ele>13</ele>
        <time>2016-07-22T12:42:28Z</time>
      </trkpt>
      <trkpt lat="47.15858" lon="-2.17444">
        <ele>13</ele>
        <time>2016-07-22T12:42:33Z</time>
      </trkpt>
      <trkpt lat="47.15838" lon="-2.17463">
        <ele>14</ele>
        <time>2016-07-22T12:42:38Z</time>
      </trkpt>
      <trkpt lat="47.15817" lon="-2.17481">
        <ele>15</ele>
        <time>2016-07-22T12:42:43Z</time>
      </trkpt>
      <trkpt lat="47.158" lon="-2.17501">
        <ele>15</ele>
        <time>2016-07-22T12:42:48Z</time>
      </trkpt>
      <trkpt lat="47.15781" lon="-2.17513">
        <ele>15</ele>
        <time>2016-07-22T12:42:53Z</time>
      </trkpt>
      <trkpt lat="47.1575" lon="-2.1751">
        <ele>12</ele>
        <time>2016-07-22T12:43:01Z</time>
      </trkpt>
      <trkpt lat="47.15742" lon="-2.17501">
        <ele>13</ele>
        <time>2016-07-22T12:43:03Z</time>
      </trkpt>
      <trkpt lat="47.15722" lon="-2.17477">
        <ele>12</ele>
        <time>2016-07-22T12:43:08Z</time>
      </trkpt>
      <trkpt lat="47.15708" lon="-2.17454">
        <ele>12</ele>
        <time>2016-07-22T12:43:13Z</time>
      </trkpt>
      <trkpt lat="47.15699" lon="-2.17426">
        <ele>14</ele>
        <time>2016-07-22T12:43:18Z</time>
      </trkpt>
      <trkpt lat="47.15696" lon="-2.17396">
        <ele>12</ele>
        <time>2016-07-22T12:43:23Z</time>
      </trkpt>
      <trkpt lat="47.15683" lon="-2.17387">
        <ele>8</ele>
        <time>2016-07-22T12:43:28Z</time>
      </trkpt>
      <trkpt lat="47.15665" lon="-2.17397">
        <ele>10</ele>
        <time>2016-07-22T12:43:33Z</time>
      </trkpt>
      <trkpt lat="47.1564" lon="-2.17413">
        <ele>9</ele>
        <time>2016-07-22T12:43:38Z</time>
      </trkpt>
      <trkpt lat="47.15613" lon="-2.17427">
        <ele>10</ele>
        <time>2016-07-22T12:43:43Z</time>
      </trkpt>
      <trkpt lat="47.15586" lon="-2.17442">
        <ele>10</ele>
        <time>2016-07-22T12:43:48Z</time>
      </trkpt>
      <trkpt lat="47.15562" lon="-2.17457">
        <ele>9</ele>
        <time>2016-07-22T12:43:53Z</time>
      </trkpt>
      <trkpt lat="47.15541" lon="-2.17468">
        <ele>8</ele>
        <time>2016-07-22T12:43:58Z</time>
      </trkpt>
      <trkpt lat="47.15536" lon="-2.17471">
        <ele>10</ele>
        <time>2016-07-22T12:44:03Z</time>
      </trkpt>
      <trkpt lat="47.15535" lon="-2.17471">
        <ele>9</ele>
        <time>2016-07-22T12:44:08Z</time>
      </trkpt>
    </trkseg>
  </trk>
</gpx>